sensor_id;sensor_type;location;lat;lon;timestamp;temperature;humidity
13072;DHT22;6602;58.934;11.166;2023-06-26T00:01:01;16.10;99.90
13072;DHT22;6602;58.934;11.166;2023-06-26T00:06:02;16.00;99.90
13072;DHT22;6602;58.934;11.166;2023-06-26T00:11:03;15.90;99.90
13072;DHT22;6602;58.934;11.166;2023-06-26T00:16:04;15.80;99.90
13072;DHT22;6602;58.934;11.166;2023-06-26T00:21:09;15.90;99.90
13072;DHT22;6602;58.934;11.166;2023-06-26T00:26:12;15.80;99.90
13072;DHT22;6602;58.934;11.166;2023-06-26T00:31:13;15.80;99.90
13072;DHT22;6602;58.934;11.166;2023-06-26T00:36:15;15.70;99.90
13072;DHT22;6602;58.934;11.166;2023-06-26T00:41:16;15.60;99.90
13072;DHT22;6602;58.934;11.166;2023-06-26T00:46:23;15.60;99.90
13072;DHT22;6602;58.934;11.166;2023-06-26T00:51:29;15.60;99.90
13072;DHT22;6602;58.934;11.166;2023-06-26T00:56:31;15.40;99.90
13072;DHT22;6602;58.934;11.166;2023-06-26T01:01:32;15.40;99.90
13072;DHT22;6602;58.934;11.166;2023-06-26T01:06:33;15.40;99.90
13072;DHT22;6602;58.934;11.166;2023-06-26T01:11:37;15.40;99.90
13072;DHT22;6602;58.934;11.166;2023-06-26T01:16:38;15.40;99.90
13072;DHT22;6602;58.934;11.166;2023-06-26T01:21:43;15.40;99.90
13072;DHT22;6602;58.934;11.166;2023-06-26T01:26:45;15.30;99.90
13072;DHT22;6602;58.934;11.166;2023-06-26T01:31:48;15.20;99.90
13072;DHT22;6602;58.934;11.166;2023-06-26T01:36:49;15.20;99.90
13072;DHT22;6602;58.934;11.166;2023-06-26T01:41:50;15.20;99.90
13072;DHT22;6602;58.934;11.166;2023-06-26T01:46:54;15.30;99.90
13072;DHT22;6602;58.934;11.166;2023-06-26T01:52:14;15.20;99.90
13072;DHT22;6602;58.934;11.166;2023-06-26T01:57:21;15.10;99.90
13072;DHT22;6602;58.934;11.166;2023-06-26T02:02:25;15.10;99.90
13072;DHT22;6602;58.934;11.166;2023-06-26T02:07:26;15.10;99.90
13072;DHT22;6602;58.934;11.166;2023-06-26T02:12:35;15.10;99.90
13072;DHT22;6602;58.934;11.166;2023-06-26T02:17:36;15.00;99.90
13072;DHT22;6602;58.934;11.166;2023-06-26T02:22:38;15.10;99.90
13072;DHT22;6602;58.934;11.166;2023-06-26T02:27:39;15.10;99.90
13072;DHT22;6602;58.934;11.166;2023-06-26T02:32:40;15.10;99.90
13072;DHT22;6602;58.934;11.166;2023-06-26T02:37:47;15.00;99.90
13072;DHT22;6602;58.934;11.166;2023-06-26T02:42:49;15.10;99.90
13072;DHT22;6602;58.934;11.166;2023-06-26T02:47:52;15.10;99.90
13072;DHT22;6602;58.934;11.166;2023-06-26T02:52:56;15.10;99.90
13072;DHT22;6602;58.934;11.166;2023-06-26T02:58:03;15.20;99.90
13072;DHT22;6602;58.934;11.166;2023-06-26T03:03:19;15.20;99.90
13072;DHT22;6602;58.934;11.166;2023-06-26T03:08:23;15.30;99.90
13072;DHT22;6602;58.934;11.166;2023-06-26T03:13:34;15.30;99.90
13072;DHT22;6602;58.934;11.166;2023-06-26T03:18:41;15.30;99.90
13072;DHT22;6602;58.934;11.166;2023-06-26T03:23:46;15.50;99.90
13072;DHT22;6602;58.934;11.166;2023-06-26T03:28:49;15.50;99.90
13072;DHT22;6602;58.934;11.166;2023-06-26T03:34:02;15.60;99.90
13072;DHT22;6602;58.934;11.166;2023-06-26T03:39:03;15.70;99.90
13072;DHT22;6602;58.934;11.166;2023-06-26T03:44:04;15.80;99.90
13072;DHT22;6602;58.934;11.166;2023-06-26T03:49:08;15.90;99.90
13072;DHT22;6602;58.934;11.166;2023-06-26T03:54:08;16.00;99.90
13072;DHT22;6602;58.934;11.166;2023-06-26T03:59:12;16.20;99.90
13072;DHT22;6602;58.934;11.166;2023-06-26T04:04:13;16.50;99.90
13072;DHT22;6602;58.934;11.166;2023-06-26T04:09:17;16.60;99.90
13072;DHT22;6602;58.934;11.166;2023-06-26T04:14:18;16.80;99.90
13072;DHT22;6602;58.934;11.166;2023-06-26T04:19:21;16.90;99.90
13072;DHT22;6602;58.934;11.166;2023-06-26T04:24:22;17.90;99.90
13072;DHT22;6602;58.934;11.166;2023-06-26T04:29:27;18.80;99.90
13072;DHT22;6602;58.934;11.166;2023-06-26T04:34:30;19.60;99.90
13072;DHT22;6602;58.934;11.166;2023-06-26T04:39:34;20.20;99.90
13072;DHT22;6602;58.934;11.166;2023-06-26T04:44:38;20.40;99.90
13072;DHT22;6602;58.934;11.166;2023-06-26T04:49:43;20.50;99.90
13072;DHT22;6602;58.934;11.166;2023-06-26T04:54:46;20.70;99.90
13072;DHT22;6602;58.934;11.166;2023-06-26T04:59:47;20.70;99.90
13072;DHT22;6602;58.934;11.166;2023-06-26T05:04:49;20.50;99.90
13072;DHT22;6602;58.934;11.166;2023-06-26T05:09:52;20.20;99.90
13072;DHT22;6602;58.934;11.166;2023-06-26T05:14:53;20.40;99.90
13072;DHT22;6602;58.934;11.166;2023-06-26T05:19:54;20.40;99.90
13072;DHT22;6602;58.934;11.166;2023-06-26T05:24:55;20.20;99.90
13072;DHT22;6602;58.934;11.166;2023-06-26T05:30:02;20.10;99.90
13072;DHT22;6602;58.934;11.166;2023-06-26T05:35:03;20.10;99.90
13072;DHT22;6602;58.934;11.166;2023-06-26T05:40:08;20.30;99.90
13072;DHT22;6602;58.934;11.166;2023-06-26T05:45:10;20.30;99.90
13072;DHT22;6602;58.934;11.166;2023-06-26T05:50:14;19.90;99.90
13072;DHT22;6602;58.934;11.166;2023-06-26T05:55:16;19.50;99.90
13072;DHT22;6602;58.934;11.166;2023-06-26T06:00:20;19.30;99.90
13072;DHT22;6602;58.934;11.166;2023-06-26T06:05:24;19.50;99.90
13072;DHT22;6602;58.934;11.166;2023-06-26T06:10:37;19.30;99.90
13072;DHT22;6602;58.934;11.166;2023-06-26T06:15:39;19.20;99.90
13072;DHT22;6602;58.934;11.166;2023-06-26T06:20:40;19.30;99.90
13072;DHT22;6602;58.934;11.166;2023-06-26T06:25:41;19.60;99.90
13072;DHT22;6602;58.934;11.166;2023-06-26T06:30:46;20.10;99.90
13072;DHT22;6602;58.934;11.166;2023-06-26T06:35:47;20.20;99.90
13072;DHT22;6602;58.934;11.166;2023-06-26T06:40:51;20.00;99.90
13072;DHT22;6602;58.934;11.166;2023-06-26T06:45:59;19.70;99.90
13072;DHT22;6602;58.934;11.166;2023-06-26T06:51:04;19.80;99.90
13072;DHT22;6602;58.934;11.166;2023-06-26T06:56:05;19.90;99.90
13072;DHT22;6602;58.934;11.166;2023-06-26T07:01:10;20.50;99.90
13072;DHT22;6602;58.934;11.166;2023-06-26T07:06:11;20.50;99.90
13072;DHT22;6602;58.934;11.166;2023-06-26T07:11:12;20.70;99.90
13072;DHT22;6602;58.934;11.166;2023-06-26T07:16:17;21.30;99.90
13072;DHT22;6602;58.934;11.166;2023-06-26T07:21:19;21.50;99.90
13072;DHT22;6602;58.934;11.166;2023-06-26T07:26:20;21.50;99.90
13072;DHT22;6602;58.934;11.166;2023-06-26T07:31:22;21.70;99.90
13072;DHT22;6602;58.934;11.166;2023-06-26T07:36:23;21.70;99.90
13072;DHT22;6602;58.934;11.166;2023-06-26T07:41:24;22.20;99.90
13072;DHT22;6602;58.934;11.166;2023-06-26T07:46:25;23.00;99.90
13072;DHT22;6602;58.934;11.166;2023-06-26T07:51:26;23.40;99.90
13072;DHT22;6602;58.934;11.166;2023-06-26T07:56:30;24.80;99.90
13072;DHT22;6602;58.934;11.166;2023-06-26T08:01:31;26.00;99.90
13072;DHT22;6602;58.934;11.166;2023-06-26T08:06:35;26.80;99.90
13072;DHT22;6602;58.934;11.166;2023-06-26T08:11:39;27.10;99.90
13072;DHT22;6602;58.934;11.166;2023-06-26T08:16:44;27.50;99.90
13072;DHT22;6602;58.934;11.166;2023-06-26T08:21:47;28.00;99.90
13072;DHT22;6602;58.934;11.166;2023-06-26T08:26:48;28.40;99.90
13072;DHT22;6602;58.934;11.166;2023-06-26T08:31:49;28.50;99.90
13072;DHT22;6602;58.934;11.166;2023-06-26T08:36:50;28.80;99.90
13072;DHT22;6602;58.934;11.166;2023-06-26T08:41:52;29.30;99.90
13072;DHT22;6602;58.934;11.166;2023-06-26T08:46:54;29.10;99.90
13072;DHT22;6602;58.934;11.166;2023-06-26T08:52:08;28.70;99.90
13072;DHT22;6602;58.934;11.166;2023-06-26T08:57:12;28.60;99.90
13072;DHT22;6602;58.934;11.166;2023-06-26T09:02:15;28.60;99.90
13072;DHT22;6602;58.934;11.166;2023-06-26T09:07:18;28.50;99.90
13072;DHT22;6602;58.934;11.166;2023-06-26T09:12:32;29.30;99.90
13072;DHT22;6602;58.934;11.166;2023-06-26T09:17:42;29.80;99.90
13072;DHT22;6602;58.934;11.166;2023-06-26T09:22:50;29.80;99.90
13072;DHT22;6602;58.934;11.166;2023-06-26T09:27:52;29.90;99.90
13072;DHT22;6602;58.934;11.166;2023-06-26T09:32:56;28.50;99.90
13072;DHT22;6602;58.934;11.166;2023-06-26T09:38:00;28.50;99.90
13072;DHT22;6602;58.934;11.166;2023-06-26T09:43:05;28.40;99.90
13072;DHT22;6602;58.934;11.166;2023-06-26T09:48:14;28.00;99.90
13072;DHT22;6602;58.934;11.166;2023-06-26T09:53:16;26.90;99.90
13072;DHT22;6602;58.934;11.166;2023-06-26T09:58:25;26.00;99.90
13072;DHT22;6602;58.934;11.166;2023-06-26T10:03:32;26.20;99.90
13072;DHT22;6602;58.934;11.166;2023-06-26T10:08:42;26.00;99.90
13072;DHT22;6602;58.934;11.166;2023-06-26T10:13:51;26.60;99.90
13072;DHT22;6602;58.934;11.166;2023-06-26T10:18:56;27.40;99.90
13072;DHT22;6602;58.934;11.166;2023-06-26T10:23:58;27.60;99.90
13072;DHT22;6602;58.934;11.166;2023-06-26T10:28:59;27.60;99.90
13072;DHT22;6602;58.934;11.166;2023-06-26T10:34:02;27.60;99.90
13072;DHT22;6602;58.934;11.166;2023-06-26T10:39:05;27.30;99.90
13072;DHT22;6602;58.934;11.166;2023-06-26T10:44:12;27.00;99.90
13072;DHT22;6602;58.934;11.166;2023-06-26T10:49:19;26.20;99.90
13072;DHT22;6602;58.934;11.166;2023-06-26T10:54:21;25.90;99.90
13072;DHT22;6602;58.934;11.166;2023-06-26T10:59:39;25.60;99.90
13072;DHT22;6602;58.934;11.166;2023-06-26T11:04:50;25.40;99.90
13072;DHT22;6602;58.934;11.166;2023-06-26T11:09:58;26.00;99.90
13072;DHT22;6602;58.934;11.166;2023-06-26T11:15:16;26.10;99.90
13072;DHT22;6602;58.934;11.166;2023-06-26T11:20:17;26.50;99.90
13072;DHT22;6602;58.934;11.166;2023-06-26T11:25:28;26.60;99.90
13072;DHT22;6602;58.934;11.166;2023-06-26T11:30:29;26.90;99.90
13072;DHT22;6602;58.934;11.166;2023-06-26T11:35:33;26.30;99.90
13072;DHT22;6602;58.934;11.166;2023-06-26T11:40:37;26.60;99.90
13072;DHT22;6602;58.934;11.166;2023-06-26T11:45:46;27.30;99.90
13072;DHT22;6602;58.934;11.166;2023-06-26T11:51:06;27.60;99.90
13072;DHT22;6602;58.934;11.166;2023-06-26T11:56:17;27.20;99.90
13072;DHT22;6602;58.934;11.166;2023-06-26T12:01:26;27.10;99.90
13072;DHT22;6602;58.934;11.166;2023-06-26T12:12:45;26.40;99.90
13072;DHT22;6602;58.934;11.166;2023-06-26T12:17:47;25.90;99.90
13072;DHT22;6602;58.934;11.166;2023-06-26T12:22:52;25.90;99.90
13072;DHT22;6602;58.934;11.166;2023-06-26T12:27:56;26.00;99.90
13072;DHT22;6602;58.934;11.166;2023-06-26T12:32:56;25.80;99.90
13072;DHT22;6602;58.934;11.166;2023-06-26T12:37:57;25.80;99.90
13072;DHT22;6602;58.934;11.166;2023-06-26T12:42:58;25.80;99.90
13072;DHT22;6602;58.934;11.166;2023-06-26T12:48:12;25.80;99.90
13072;DHT22;6602;58.934;11.166;2023-06-26T12:53:14;26.10;99.90
13072;DHT22;6602;58.934;11.166;2023-06-26T12:58:15;26.10;99.90
13072;DHT22;6602;58.934;11.166;2023-06-26T13:03:19;26.20;99.90
13072;DHT22;6602;58.934;11.166;2023-06-26T13:08:21;26.10;99.90
13072;DHT22;6602;58.934;11.166;2023-06-26T13:13:25;25.90;99.90
13072;DHT22;6602;58.934;11.166;2023-06-26T13:18:26;26.10;99.90
13072;DHT22;6602;58.934;11.166;2023-06-26T13:23:29;26.20;99.90
13072;DHT22;6602;58.934;11.166;2023-06-26T13:28:30;26.00;99.90
13072;DHT22;6602;58.934;11.166;2023-06-26T13:33:33;25.50;99.90
13072;DHT22;6602;58.934;11.166;2023-06-26T13:38:34;25.20;99.90
13072;DHT22;6602;58.934;11.166;2023-06-26T13:43:53;24.70;99.90
13072;DHT22;6602;58.934;11.166;2023-06-26T13:48:57;24.30;99.90
13072;DHT22;6602;58.934;11.166;2023-06-26T13:54:10;23.70;99.90
13072;DHT22;6602;58.934;11.166;2023-06-26T13:59:13;23.20;99.90
13072;DHT22;6602;58.934;11.166;2023-06-26T14:04:17;22.90;99.90
13072;DHT22;6602;58.934;11.166;2023-06-26T14:09:18;22.60;99.90
13072;DHT22;6602;58.934;11.166;2023-06-26T14:14:19;22.30;99.90
13072;DHT22;6602;58.934;11.166;2023-06-26T14:19:20;21.20;99.90
13072;DHT22;6602;58.934;11.166;2023-06-26T14:24:24;20.20;99.90
13072;DHT22;6602;58.934;11.166;2023-06-26T14:29:30;20.10;99.90
13072;DHT22;6602;58.934;11.166;2023-06-26T14:34:40;20.40;99.90
13072;DHT22;6602;58.934;11.166;2023-06-26T14:39:45;20.40;99.90
13072;DHT22;6602;58.934;11.166;2023-06-26T14:44:48;20.30;99.90
13072;DHT22;6602;58.934;11.166;2023-06-26T14:49:58;20.30;99.90
13072;DHT22;6602;58.934;11.166;2023-06-26T14:55:05;20.40;99.90
13072;DHT22;6602;58.934;11.166;2023-06-26T15:00:11;20.40;99.90
13072;DHT22;6602;58.934;11.166;2023-06-26T15:05:12;20.40;99.90
13072;DHT22;6602;58.934;11.166;2023-06-26T15:10:21;20.40;99.90
13072;DHT22;6602;58.934;11.166;2023-06-26T15:15:24;20.40;99.90
13072;DHT22;6602;58.934;11.166;2023-06-26T15:20:27;20.30;99.90
13072;DHT22;6602;58.934;11.166;2023-06-26T15:25:29;20.30;99.90
13072;DHT22;6602;58.934;11.166;2023-06-26T15:30:35;20.30;99.90
13072;DHT22;6602;58.934;11.166;2023-06-26T15:35:36;20.20;99.90
13072;DHT22;6602;58.934;11.166;2023-06-26T15:40:37;20.20;99.90
13072;DHT22;6602;58.934;11.166;2023-06-26T15:45:40;20.20;99.90
13072;DHT22;6602;58.934;11.166;2023-06-26T15:50:41;20.10;99.90
13072;DHT22;6602;58.934;11.166;2023-06-26T15:55:45;20.20;99.90
13072;DHT22;6602;58.934;11.166;2023-06-26T16:00:47;20.10;99.90
13072;DHT22;6602;58.934;11.166;2023-06-26T16:05:48;20.20;99.90
13072;DHT22;6602;58.934;11.166;2023-06-26T16:10:54;20.10;99.90
13072;DHT22;6602;58.934;11.166;2023-06-26T16:15:58;20.10;99.90
13072;DHT22;6602;58.934;11.166;2023-06-26T16:20:59;20.10;99.90
13072;DHT22;6602;58.934;11.166;2023-06-26T16:26:00;20.00;99.90
13072;DHT22;6602;58.934;11.166;2023-06-26T16:31:03;19.90;99.90
13072;DHT22;6602;58.934;11.166;2023-06-26T16:36:04;20.00;99.90
13072;DHT22;6602;58.934;11.166;2023-06-26T16:41:11;20.10;99.90
13072;DHT22;6602;58.934;11.166;2023-06-26T16:46:12;20.20;99.90
13072;DHT22;6602;58.934;11.166;2023-06-26T16:51:13;20.30;99.90
13072;DHT22;6602;58.934;11.166;2023-06-26T16:56:16;20.30;99.90
13072;DHT22;6602;58.934;11.166;2023-06-26T17:01:17;20.30;99.90
13072;DHT22;6602;58.934;11.166;2023-06-26T17:06:18;20.30;99.90
13072;DHT22;6602;58.934;11.166;2023-06-26T17:11:21;20.20;99.90
13072;DHT22;6602;58.934;11.166;2023-06-26T17:16:22;20.10;99.90
13072;DHT22;6602;58.934;11.166;2023-06-26T17:21:26;19.90;99.90
13072;DHT22;6602;58.934;11.166;2023-06-26T17:26:30;19.70;99.90
13072;DHT22;6602;58.934;11.166;2023-06-26T17:31:36;19.50;99.90
13072;DHT22;6602;58.934;11.166;2023-06-26T17:36:37;19.40;99.90
13072;DHT22;6602;58.934;11.166;2023-06-26T17:41:44;19.30;99.90
13072;DHT22;6602;58.934;11.166;2023-06-26T17:46:58;19.20;99.90
13072;DHT22;6602;58.934;11.166;2023-06-26T17:52:00;19.10;99.90
13072;DHT22;6602;58.934;11.166;2023-06-26T17:57:03;18.90;99.90
13072;DHT22;6602;58.934;11.166;2023-06-26T18:02:12;18.90;99.90
13072;DHT22;6602;58.934;11.166;2023-06-26T18:07:18;18.80;99.90
13072;DHT22;6602;58.934;11.166;2023-06-26T18:12:22;18.70;99.90
13072;DHT22;6602;58.934;11.166;2023-06-26T18:17:24;18.70;99.90
13072;DHT22;6602;58.934;11.166;2023-06-26T18:22:28;18.70;99.90
13072;DHT22;6602;58.934;11.166;2023-06-26T18:27:34;18.60;99.90
13072;DHT22;6602;58.934;11.166;2023-06-26T18:32:35;18.50;99.90
13072;DHT22;6602;58.934;11.166;2023-06-26T18:37:37;18.30;99.90
13072;DHT22;6602;58.934;11.166;2023-06-26T18:42:42;18.00;99.90
13072;DHT22;6602;58.934;11.166;2023-06-26T18:47:43;17.80;99.90
13072;DHT22;6602;58.934;11.166;2023-06-26T18:52:46;17.60;99.90
13072;DHT22;6602;58.934;11.166;2023-06-26T18:57:48;17.40;99.90
13072;DHT22;6602;58.934;11.166;2023-06-26T19:02:50;17.20;99.90
13072;DHT22;6602;58.934;11.166;2023-06-26T19:07:52;17.30;99.90
13072;DHT22;6602;58.934;11.166;2023-06-26T19:12:57;17.20;99.90
13072;DHT22;6602;58.934;11.166;2023-06-26T19:18:03;17.20;99.90
13072;DHT22;6602;58.934;11.166;2023-06-26T19:23:05;17.10;99.90
13072;DHT22;6602;58.934;11.166;2023-06-26T19:28:07;17.00;99.90
13072;DHT22;6602;58.934;11.166;2023-06-26T19:33:12;17.10;99.90
13072;DHT22;6602;58.934;11.166;2023-06-26T19:38:14;17.00;99.90
13072;DHT22;6602;58.934;11.166;2023-06-26T19:43:15;17.00;99.90
13072;DHT22;6602;58.934;11.166;2023-06-26T19:48:16;17.00;99.90
13072;DHT22;6602;58.934;11.166;2023-06-26T19:53:18;17.00;99.90
13072;DHT22;6602;58.934;11.166;2023-06-26T19:58:23;17.20;99.90
13072;DHT22;6602;58.934;11.166;2023-06-26T20:03:24;17.30;99.90
13072;DHT22;6602;58.934;11.166;2023-06-26T20:08:26;17.30;99.90
13072;DHT22;6602;58.934;11.166;2023-06-26T20:13:29;17.40;99.90
13072;DHT22;6602;58.934;11.166;2023-06-26T20:18:30;17.30;99.90
13072;DHT22;6602;58.934;11.166;2023-06-26T20:23:32;17.30;99.90
13072;DHT22;6602;58.934;11.166;2023-06-26T20:28:33;17.30;99.90
13072;DHT22;6602;58.934;11.166;2023-06-26T20:33:43;17.10;99.90
13072;DHT22;6602;58.934;11.166;2023-06-26T20:38:45;16.90;99.90
13072;DHT22;6602;58.934;11.166;2023-06-26T20:43:47;16.80;99.90
13072;DHT22;6602;58.934;11.166;2023-06-26T20:48:51;16.80;99.90
13072;DHT22;6602;58.934;11.166;2023-06-26T20:53:53;16.80;99.90
13072;DHT22;6602;58.934;11.166;2023-06-26T20:58:54;16.60;99.90
13072;DHT22;6602;58.934;11.166;2023-06-26T21:03:55;16.60;99.90
13072;DHT22;6602;58.934;11.166;2023-06-26T21:08:56;16.70;99.90
13072;DHT22;6602;58.934;11.166;2023-06-26T21:14:00;16.60;99.90
13072;DHT22;6602;58.934;11.166;2023-06-26T21:19:01;16.60;99.90
13072;DHT22;6602;58.934;11.166;2023-06-26T21:24:02;16.70;99.90
13072;DHT22;6602;58.934;11.166;2023-06-26T21:29:07;16.50;99.90
13072;DHT22;6602;58.934;11.166;2023-06-26T21:34:14;16.70;99.90
13072;DHT22;6602;58.934;11.166;2023-06-26T21:39:15;16.60;99.90
13072;DHT22;6602;58.934;11.166;2023-06-26T21:44:16;16.50;99.90
13072;DHT22;6602;58.934;11.166;2023-06-26T21:49:16;16.40;99.90
13072;DHT22;6602;58.934;11.166;2023-06-26T21:54:17;16.40;99.90
13072;DHT22;6602;58.934;11.166;2023-06-26T21:59:19;16.50;99.90
13072;DHT22;6602;58.934;11.166;2023-06-26T22:04:23;16.50;99.90
13072;DHT22;6602;58.934;11.166;2023-06-26T22:09:25;16.40;99.90
13072;DHT22;6602;58.934;11.166;2023-06-26T22:14:26;16.40;99.90
13072;DHT22;6602;58.934;11.166;2023-06-26T22:19:27;16.40;99.90
13072;DHT22;6602;58.934;11.166;2023-06-26T22:24:28;16.40;99.90
13072;DHT22;6602;58.934;11.166;2023-06-26T22:29:28;16.30;99.90
13072;DHT22;6602;58.934;11.166;2023-06-26T22:34:29;16.30;99.90
13072;DHT22;6602;58.934;11.166;2023-06-26T22:39:31;16.30;99.90
13072;DHT22;6602;58.934;11.166;2023-06-26T22:44:32;16.30;99.90
13072;DHT22;6602;58.934;11.166;2023-06-26T22:49:33;16.40;99.90
13072;DHT22;6602;58.934;11.166;2023-06-26T22:54:35;16.50;99.90
13072;DHT22;6602;58.934;11.166;2023-06-26T22:59:40;16.60;99.90
13072;DHT22;6602;58.934;11.166;2023-06-26T23:04:41;16.60;99.90
13072;DHT22;6602;58.934;11.166;2023-06-26T23:09:51;16.60;99.90
13072;DHT22;6602;58.934;11.166;2023-06-26T23:14:52;16.60;99.90
13072;DHT22;6602;58.934;11.166;2023-06-26T23:19:52;16.60;99.90
13072;DHT22;6602;58.934;11.166;2023-06-26T23:24:53;16.50;99.90
13072;DHT22;6602;58.934;11.166;2023-06-26T23:29:57;16.50;99.90
13072;DHT22;6602;58.934;11.166;2023-06-26T23:34:58;16.50;99.90
13072;DHT22;6602;58.934;11.166;2023-06-26T23:39:59;16.60;99.90
13072;DHT22;6602;58.934;11.166;2023-06-26T23:45:00;16.50;99.90
13072;DHT22;6602;58.934;11.166;2023-06-26T23:50:01;16.50;99.90
13072;DHT22;6602;58.934;11.166;2023-06-26T23:55:03;16.40;99.90
